createdAt,value
2018-11-10T00:00:39.937Z,0.00
2018-11-10T00:01:39.965Z,0.00
2018-11-10T00:02:39.992Z,0.00
2018-11-10T00:03:40.019Z,0.00
2018-11-10T00:04:40.047Z,0.00
2018-11-10T00:05:40.075Z,0.00
2018-11-10T00:06:40.105Z,0.00
2018-11-10T00:07:40.169Z,0.00
2018-11-10T00:08:40.161Z,0.00
2018-11-10T00:09:40.187Z,0.00
2018-11-10T00:10:40.212Z,0.00
2018-11-10T00:11:40.241Z,0.00
2018-11-10T00:12:40.267Z,0.00
2018-11-10T00:13:40.295Z,0.00
2018-11-10T00:14:40.321Z,0.00
2018-11-10T00:15:40.349Z,0.00
2018-11-10T00:16:40.413Z,0.00
2018-11-10T00:17:40.407Z,0.00
2018-11-10T00:18:40.433Z,0.00
2018-11-10T00:19:40.461Z,0.00
2018-11-10T00:20:40.487Z,0.00
2018-11-10T00:21:40.515Z,0.00
2018-11-10T00:22:40.542Z,0.00
2018-11-10T00:23:40.570Z,0.00
2018-11-10T00:24:40.597Z,0.00
2018-11-10T00:25:40.627Z,0.00
2018-11-10T00:26:40.652Z,0.00
2018-11-10T00:27:40.680Z,0.00
2018-11-10T00:28:40.708Z,0.00
2018-11-10T00:29:40.738Z,0.00
2018-11-10T00:30:40.762Z,0.00
2018-11-10T00:31:40.791Z,0.00
2018-11-10T00:32:40.819Z,0.00
2018-11-10T00:33:40.851Z,0.00
2018-11-10T00:34:40.973Z,0.00
2018-11-10T00:35:40.902Z,0.00
2018-11-10T00:36:40.929Z,0.00
2018-11-10T00:37:40.956Z,0.00
2018-11-10T00:38:40.983Z,0.00
2018-11-10T00:39:41.015Z,0.00
2018-11-10T00:40:41.039Z,0.00
2018-11-10T00:41:41.067Z,0.00
2018-11-10T00:42:41.147Z,0.00
2018-11-10T00:43:41.122Z,0.00
2018-11-10T00:44:41.149Z,0.00
2018-11-10T00:45:41.180Z,0.00
2018-11-10T00:46:41.205Z,0.00
2018-11-10T00:47:41.236Z,0.00
2018-11-10T00:48:41.259Z,0.00
2018-11-10T00:49:41.286Z,0.00
2018-11-10T00:50:41.317Z,0.00
2018-11-10T00:51:41.342Z,0.00
2018-11-10T00:52:41.376Z,0.00
2018-11-10T00:53:41.397Z,0.00
2018-11-10T00:54:41.449Z,0.00
2018-11-10T00:55:41.451Z,0.00
2018-11-10T00:56:41.478Z,0.00
2018-11-10T00:57:41.506Z,0.00
2018-11-10T00:58:41.533Z,0.00
2018-11-10T00:59:41.559Z,0.00
2018-11-10T01:00:41.589Z,0.00
2018-11-10T01:01:41.615Z,0.00
2018-11-10T01:02:41.641Z,0.00
2018-11-10T01:03:41.668Z,0.00
2018-11-10T01:04:41.697Z,0.00
2018-11-10T01:05:41.724Z,0.00
2018-11-10T01:06:41.750Z,0.00
2018-11-10T01:07:41.787Z,0.00
2018-11-10T01:08:41.808Z,0.00
2018-11-10T01:09:41.834Z,0.00
2018-11-10T01:10:41.910Z,0.00
2018-11-10T01:11:41.888Z,0.00
2018-11-10T01:12:41.916Z,0.00
2018-11-10T01:13:41.943Z,0.00
2018-11-10T01:14:41.970Z,0.00
2018-11-10T01:15:41.999Z,0.00
2018-11-10T01:16:42.026Z,0.00
2018-11-10T01:17:42.054Z,0.00
2018-11-10T01:18:42.080Z,0.00
2018-11-10T01:19:42.109Z,0.00
2018-11-10T01:20:42.136Z,0.00
2018-11-10T01:21:42.166Z,0.00
2018-11-10T01:22:42.194Z,0.00
2018-11-10T01:23:42.219Z,0.00
2018-11-10T01:24:42.246Z,0.00
2018-11-10T01:25:42.273Z,0.00
2018-11-10T01:26:42.301Z,0.00
2018-11-10T01:27:42.390Z,0.00
2018-11-10T01:28:42.356Z,0.00
2018-11-10T01:29:42.383Z,0.00
2018-11-10T01:30:42.411Z,0.00
2018-11-10T01:31:42.437Z,0.00
2018-11-10T01:32:42.467Z,0.00
2018-11-10T01:33:42.494Z,0.00
2018-11-10T01:34:42.521Z,0.00
2018-11-10T01:35:42.551Z,0.00
2018-11-10T01:36:42.575Z,0.00
2018-11-10T01:37:42.603Z,0.00
2018-11-10T01:38:42.630Z,0.00
2018-11-10T01:39:42.657Z,0.00
2018-11-10T01:40:42.685Z,0.00
2018-11-10T01:41:42.712Z,0.00
2018-11-10T01:42:42.740Z,0.00
2018-11-10T01:43:42.767Z,0.00
2018-11-10T01:44:42.795Z,0.00
2018-11-10T01:45:42.823Z,0.00
2018-11-10T01:46:42.852Z,0.00
2018-11-10T01:47:42.877Z,0.00
2018-11-10T01:48:42.907Z,0.00
2018-11-10T01:49:42.933Z,0.00
2018-11-10T01:50:42.959Z,0.00
2018-11-10T01:51:42.987Z,0.00
2018-11-10T01:52:43.017Z,0.00
2018-11-10T01:53:43.044Z,0.00
2018-11-10T01:54:43.070Z,0.00
2018-11-10T01:55:43.098Z,0.00
2018-11-10T01:56:43.125Z,0.00
2018-11-10T01:57:43.162Z,0.00
2018-11-10T01:58:43.187Z,0.00
2018-11-10T01:59:43.209Z,0.00
2018-11-10T02:00:43.236Z,0.00
2018-11-10T02:01:43.265Z,0.00
2018-11-10T02:02:43.290Z,0.00
2018-11-10T02:03:43.319Z,0.00
2018-11-10T02:04:43.351Z,0.00
2018-11-10T02:05:43.374Z,0.00
2018-11-10T02:06:43.489Z,0.00
2018-11-10T02:07:43.435Z,0.00
2018-11-10T02:08:43.459Z,0.00
2018-11-10T02:09:43.486Z,0.00
2018-11-10T02:10:43.514Z,0.00
2018-11-10T02:11:43.541Z,0.00
2018-11-10T02:12:43.569Z,0.00
2018-11-10T02:13:43.596Z,0.00
2018-11-10T02:14:43.624Z,0.00
2018-11-10T02:15:43.653Z,0.00
2018-11-10T02:16:43.680Z,0.00
2018-11-10T02:17:43.708Z,0.00
2018-11-10T02:18:43.735Z,0.00
2018-11-10T02:19:43.764Z,0.00
2018-11-10T02:20:43.802Z,0.00
2018-11-10T02:21:43.820Z,0.00
2018-11-10T02:22:43.848Z,0.00
2018-11-10T02:23:43.877Z,0.00
2018-11-10T02:24:43.904Z,0.00
2018-11-10T02:25:43.931Z,0.00
2018-11-10T02:26:43.957Z,0.00
2018-11-10T02:27:43.987Z,0.00
2018-11-10T02:28:44.014Z,0.00
2018-11-10T02:29:44.043Z,0.00
2018-11-10T02:30:44.072Z,0.00
2018-11-10T02:31:44.097Z,0.00
2018-11-10T02:32:44.130Z,0.00
2018-11-10T02:33:44.154Z,0.00
2018-11-10T02:34:44.184Z,0.00
2018-11-10T02:35:44.209Z,0.00
2018-11-10T02:36:44.236Z,0.00
2018-11-10T02:37:44.268Z,0.00
2018-11-10T02:38:44.336Z,0.00
2018-11-10T02:39:44.321Z,0.00
2018-11-10T02:40:44.352Z,0.00
2018-11-10T02:41:44.378Z,0.00
2018-11-10T02:42:44.416Z,0.00
2018-11-10T02:43:44.433Z,0.00
2018-11-10T02:44:44.464Z,0.00
2018-11-10T02:45:44.489Z,0.00
2018-11-10T02:46:44.516Z,0.00
2018-11-10T02:47:44.544Z,0.00
2018-11-10T02:48:44.571Z,0.00
2018-11-10T02:49:44.616Z,0.00
2018-11-10T02:50:44.628Z,0.00
2018-11-10T02:51:44.657Z,0.00
2018-11-10T02:52:44.747Z,0.00
2018-11-10T02:53:44.712Z,0.00
2018-11-10T02:54:44.739Z,0.00
2018-11-10T02:55:44.767Z,0.00
2018-11-10T02:56:44.795Z,0.00
2018-11-10T02:57:44.824Z,0.00
2018-11-10T02:58:44.850Z,0.00
2018-11-10T02:59:44.879Z,0.00
2018-11-10T03:00:44.907Z,0.00
2018-11-10T03:01:44.936Z,0.00
2018-11-10T03:02:44.962Z,0.00
2018-11-10T03:03:44.994Z,0.00
2018-11-10T03:04:45.020Z,0.00
2018-11-10T03:05:45.047Z,0.00
2018-11-10T03:06:45.074Z,0.00
2018-11-10T03:07:45.102Z,0.00
2018-11-10T03:08:45.130Z,0.00
2018-11-10T03:09:45.158Z,0.00
2018-11-10T03:10:45.238Z,0.00
2018-11-10T03:11:45.213Z,0.00
2018-11-10T03:12:45.245Z,0.00
2018-11-10T03:13:45.269Z,0.00
2018-11-10T03:14:45.297Z,0.00
2018-11-10T03:15:45.325Z,0.00
2018-11-10T03:16:45.355Z,0.00
2018-11-10T03:17:45.382Z,0.00
2018-11-10T03:18:45.410Z,0.00
2018-11-10T03:19:45.437Z,0.00
2018-11-10T03:20:45.465Z,0.00
2018-11-10T03:21:45.493Z,0.00
2018-11-10T03:22:45.521Z,0.00
2018-11-10T03:23:45.555Z,0.00
2018-11-10T03:24:45.578Z,0.00
2018-11-10T03:25:45.605Z,0.00
2018-11-10T03:26:45.633Z,0.00
2018-11-10T03:27:45.660Z,0.00
2018-11-10T03:28:45.690Z,0.00
2018-11-10T03:29:45.717Z,0.00
2018-11-10T03:30:45.744Z,0.00
2018-11-10T03:31:45.774Z,0.00
2018-11-10T03:32:45.802Z,0.00
2018-11-10T03:33:45.830Z,0.00
2018-11-10T03:34:45.857Z,0.00
2018-11-10T03:35:45.885Z,0.00
2018-11-10T03:36:45.913Z,0.00
2018-11-10T03:37:45.943Z,0.00
2018-11-10T03:38:45.968Z,0.00
2018-11-10T03:39:45.999Z,0.00
2018-11-10T03:40:46.026Z,0.00
2018-11-10T03:41:46.056Z,0.00
2018-11-10T03:42:46.082Z,0.00
2018-11-10T03:43:46.110Z,0.00
2018-11-10T03:44:46.138Z,0.00
2018-11-10T03:45:46.167Z,0.00
2018-11-10T03:46:46.194Z,0.00
2018-11-10T03:47:46.223Z,0.00
2018-11-10T03:48:46.325Z,0.00
2018-11-10T03:49:46.281Z,0.00
2018-11-10T03:50:46.307Z,0.00
2018-11-10T03:51:46.340Z,0.00
2018-11-10T03:52:46.366Z,0.00
2018-11-10T03:53:46.392Z,0.00
2018-11-10T03:54:46.421Z,0.00
2018-11-10T03:55:46.448Z,0.00
2018-11-10T03:56:46.482Z,0.00
2018-11-10T03:57:46.566Z,0.00
2018-11-10T03:58:46.534Z,0.00
2018-11-10T03:59:46.561Z,0.00
2018-11-10T04:00:46.590Z,0.00
2018-11-10T04:01:46.619Z,0.00
2018-11-10T04:02:46.648Z,0.00
2018-11-10T04:03:46.675Z,0.00
2018-11-10T04:04:46.705Z,0.00
2018-11-10T04:05:46.733Z,0.00
2018-11-10T04:06:46.760Z,0.00
2018-11-10T04:07:46.789Z,0.00
2018-11-10T04:08:46.816Z,0.00
2018-11-10T04:09:46.853Z,0.00
2018-11-10T04:10:46.874Z,0.00
2018-11-10T04:11:46.902Z,0.00
2018-11-10T04:12:46.930Z,0.00
2018-11-10T04:13:46.960Z,0.00
2018-11-10T04:14:46.991Z,0.00
2018-11-10T04:15:47.014Z,0.00
2018-11-10T04:16:47.044Z,0.00
2018-11-10T04:17:47.073Z,0.00
2018-11-10T04:18:47.100Z,0.00
2018-11-10T04:19:47.128Z,0.00
2018-11-10T04:20:47.159Z,0.00
2018-11-10T04:21:47.185Z,0.00
2018-11-10T04:22:47.213Z,0.00
2018-11-10T04:23:47.243Z,0.00
2018-11-10T04:24:47.270Z,0.00
2018-11-10T04:25:47.300Z,0.00
2018-11-10T04:26:47.327Z,0.00
2018-11-10T04:27:47.355Z,0.00
2018-11-10T04:28:47.384Z,0.00
2018-11-10T04:29:47.413Z,0.00
2018-11-10T04:30:47.440Z,0.00
2018-11-10T04:31:47.470Z,0.00
2018-11-10T04:32:47.499Z,0.00
2018-11-10T04:33:47.526Z,0.00
2018-11-10T04:34:47.554Z,0.00
2018-11-10T04:35:47.583Z,0.00
2018-11-10T04:36:47.613Z,0.00
2018-11-10T04:37:47.640Z,0.00
2018-11-10T04:38:47.668Z,0.00
2018-11-10T04:39:47.698Z,0.00
2018-11-10T04:40:47.727Z,0.00
2018-11-10T04:41:47.755Z,0.00
2018-11-10T04:42:47.792Z,0.00
2018-11-10T04:43:47.813Z,0.00
2018-11-10T04:44:47.841Z,0.00
2018-11-10T04:45:47.869Z,0.00
2018-11-10T04:46:47.897Z,0.00
2018-11-10T04:47:47.926Z,0.00
2018-11-10T04:48:47.986Z,0.00
2018-11-10T04:49:48.041Z,0.00
2018-11-10T04:50:48.014Z,0.00
2018-11-10T04:51:48.040Z,0.00
2018-11-10T04:52:48.070Z,0.00
2018-11-10T04:53:48.098Z,0.00
2018-11-10T04:54:48.127Z,0.00
2018-11-10T04:55:48.158Z,0.00
2018-11-10T04:56:48.184Z,0.00
2018-11-10T04:57:48.214Z,0.00
2018-11-10T04:58:48.241Z,0.00
2018-11-10T04:59:48.270Z,0.00
2018-11-10T05:00:48.298Z,0.00
2018-11-10T05:01:48.328Z,0.00
2018-11-10T05:02:48.356Z,0.00
2018-11-10T05:03:48.384Z,0.00
2018-11-10T05:04:48.413Z,0.00
2018-11-10T05:05:48.444Z,0.00
2018-11-10T05:06:48.471Z,0.00
2018-11-10T05:07:48.501Z,0.00
2018-11-10T05:08:48.528Z,0.00
2018-11-10T05:09:48.558Z,0.00
2018-11-10T05:10:48.591Z,0.00
2018-11-10T05:11:48.614Z,0.00
2018-11-10T05:12:48.643Z,0.00
2018-11-10T05:13:48.673Z,0.00
2018-11-10T05:14:48.701Z,0.00
2018-11-10T05:15:48.729Z,0.00
2018-11-10T05:16:48.758Z,0.00
2018-11-10T05:17:48.788Z,0.00
2018-11-10T05:18:48.817Z,0.00
2018-11-10T05:19:48.844Z,0.00
2018-11-10T05:20:48.873Z,0.00
2018-11-10T05:21:48.902Z,0.00
2018-11-10T05:22:48.930Z,0.00
2018-11-10T05:23:48.961Z,0.00
2018-11-10T05:24:48.989Z,0.00
2018-11-10T05:25:49.016Z,0.00
2018-11-10T05:26:49.044Z,0.00
2018-11-10T05:27:49.074Z,0.00
2018-11-10T05:28:49.103Z,0.00
2018-11-10T05:29:49.131Z,0.00
2018-11-10T05:30:49.160Z,0.00
2018-11-10T05:31:49.189Z,0.00
2018-11-10T05:32:49.216Z,0.00
2018-11-10T05:33:49.246Z,0.00
2018-11-10T05:34:49.274Z,0.00
2018-11-10T05:35:49.301Z,0.00
2018-11-10T05:36:49.331Z,0.00
2018-11-10T05:37:49.359Z,0.00
2018-11-10T05:38:49.389Z,0.00
2018-11-10T05:39:49.416Z,0.00
2018-11-10T05:40:49.446Z,0.00
2018-11-10T05:41:49.474Z,0.00
2018-11-10T05:42:49.501Z,0.00
2018-11-10T05:43:49.530Z,0.00
2018-11-10T05:44:49.560Z,0.00
2018-11-10T05:45:49.587Z,0.00
2018-11-10T05:46:49.618Z,0.00
2018-11-10T05:47:49.644Z,0.00
2018-11-10T05:48:49.673Z,0.00
2018-11-10T05:49:49.700Z,0.00
2018-11-10T05:50:49.728Z,0.00
2018-11-10T05:51:49.757Z,0.00
2018-11-10T05:52:49.786Z,0.00
2018-11-10T05:53:49.816Z,0.00
2018-11-10T05:54:49.843Z,0.00
2018-11-10T05:55:49.871Z,0.00
2018-11-10T05:56:49.900Z,0.00
2018-11-10T05:57:49.928Z,0.00
2018-11-10T05:58:49.958Z,0.00
2018-11-10T05:59:49.987Z,0.00
2018-11-10T06:00:50.059Z,4.00
2018-11-10T06:01:50.043Z,4.00
2018-11-10T06:02:50.077Z,0.00
2018-11-10T06:03:50.099Z,4.00
2018-11-10T06:04:50.127Z,4.00
2018-11-10T06:05:50.159Z,4.00
2018-11-10T06:06:50.185Z,4.00
2018-11-10T06:07:50.212Z,4.00
2018-11-10T06:08:50.243Z,4.00
2018-11-10T06:09:50.391Z,8.00
2018-11-10T06:10:50.299Z,8.00
2018-11-10T06:11:50.328Z,8.00
2018-11-10T06:12:50.421Z,8.00
2018-11-10T06:13:50.384Z,12.00
2018-11-10T06:14:50.413Z,12.00
2018-11-10T06:15:50.443Z,16.00
2018-11-10T06:16:50.470Z,20.00
2018-11-10T06:17:50.499Z,24.00
2018-11-10T06:18:50.615Z,28.00
2018-11-10T06:19:50.556Z,32.00
2018-11-10T06:20:50.585Z,40.00
2018-11-10T06:21:50.620Z,48.00
2018-11-10T06:22:50.643Z,56.00
2018-11-10T06:23:50.672Z,68.00
2018-11-10T06:24:50.700Z,80.00
2018-11-10T06:25:50.733Z,88.00
2018-11-10T06:26:50.757Z,96.00
2018-11-10T06:27:50.785Z,108.00
2018-11-10T06:28:50.816Z,112.00
2018-11-10T06:29:50.845Z,120.00
2018-11-10T06:30:50.872Z,116.00
2018-11-10T06:31:50.902Z,124.00
2018-11-10T06:32:50.936Z,136.00
2018-11-10T06:33:50.960Z,144.00
2018-11-10T06:34:50.989Z,156.00
2018-11-10T06:35:51.017Z,160.00
2018-11-10T06:36:51.047Z,164.00
2018-11-10T06:37:51.075Z,172.00
2018-11-10T06:38:51.103Z,180.00
2018-11-10T06:39:51.133Z,184.00
2018-11-10T06:40:51.163Z,184.00
2018-11-10T06:41:51.191Z,184.00
2018-11-10T06:42:51.220Z,184.00
2018-11-10T06:43:51.249Z,196.00
2018-11-10T06:44:51.277Z,200.00
2018-11-10T06:45:51.308Z,208.00
2018-11-10T06:46:51.338Z,228.00
2018-11-10T06:47:51.365Z,232.00
2018-11-10T06:48:51.395Z,264.00
2018-11-10T06:49:51.424Z,280.00
2018-11-10T06:50:51.451Z,296.00
2018-11-10T06:51:51.480Z,316.00
2018-11-10T06:52:51.567Z,324.00
2018-11-10T06:53:51.538Z,340.00
2018-11-10T06:54:51.569Z,352.00
2018-11-10T06:55:51.597Z,380.00
2018-11-10T06:56:51.624Z,408.00
2018-11-10T06:57:51.653Z,400.00
2018-11-10T06:58:51.683Z,416.00
2018-11-10T06:59:51.712Z,432.00
2018-11-10T07:00:51.740Z,460.00
2018-11-10T07:01:51.771Z,468.00
2018-11-10T07:02:51.798Z,484.00
2018-11-10T07:03:51.829Z,496.00
2018-11-10T07:04:51.855Z,500.00
2018-11-10T07:05:51.887Z,536.00
2018-11-10T07:06:51.912Z,560.00
2018-11-10T07:07:51.942Z,608.00
2018-11-10T07:08:51.970Z,656.00
2018-11-10T07:09:52.003Z,720.00
2018-11-10T07:10:52.028Z,788.00
2018-11-10T07:11:52.058Z,852.00
2018-11-10T07:12:52.086Z,908.00
2018-11-10T07:13:52.113Z,980.00
2018-11-10T07:14:52.141Z,1032.00
2018-11-10T07:15:52.225Z,1064.00
2018-11-10T07:16:52.200Z,1076.00
2018-11-10T07:17:52.234Z,1092.00
2018-11-10T07:18:52.258Z,1096.00
2018-11-10T07:19:52.287Z,1124.00
2018-11-10T07:20:52.315Z,1180.00
2018-11-10T07:21:52.345Z,1224.00
2018-11-10T07:22:52.372Z,1284.00
2018-11-10T07:23:52.402Z,1312.00
2018-11-10T07:24:52.467Z,1320.00
2018-11-10T07:25:52.460Z,1300.00
2018-11-10T07:26:52.489Z,1300.00
2018-11-10T07:27:52.518Z,1288.00
2018-11-10T07:28:52.552Z,1304.00
2018-11-10T07:29:52.575Z,1288.00
2018-11-10T07:30:52.604Z,1400.00
2018-11-10T07:31:52.637Z,1508.00
2018-11-10T07:32:52.661Z,1620.00
2018-11-10T07:33:52.691Z,1740.00
2018-11-10T07:34:52.724Z,1852.00
2018-11-10T07:35:52.748Z,1872.00
2018-11-10T07:36:52.778Z,1856.00
2018-11-10T07:37:52.808Z,1856.00
2018-11-10T07:38:52.836Z,1832.00
2018-11-10T07:39:52.864Z,1804.00
2018-11-10T07:40:52.894Z,1796.00
2018-11-10T07:41:52.923Z,1844.00
2018-11-10T07:42:52.966Z,1908.00
2018-11-10T07:43:52.982Z,1920.00
2018-11-10T07:44:53.012Z,1964.00
2018-11-10T07:45:53.041Z,2112.00
2018-11-10T07:46:53.068Z,2316.00
2018-11-10T07:47:53.098Z,2652.00
2018-11-10T07:48:53.133Z,2856.00
2018-11-10T07:49:53.158Z,2880.00
2018-11-10T07:50:53.185Z,2860.00
2018-11-10T07:51:53.214Z,3028.00
2018-11-10T07:52:53.245Z,3080.00
2018-11-10T07:53:53.273Z,3308.00
2018-11-10T07:54:53.302Z,3448.00
2018-11-10T07:55:53.369Z,3700.00
2018-11-10T07:56:53.360Z,3968.00
2018-11-10T07:57:53.391Z,4088.00
2018-11-10T07:58:53.419Z,4212.00
2018-11-10T07:59:53.451Z,4136.00
2018-11-10T08:00:53.480Z,4012.00
2018-11-10T08:01:53.509Z,3724.00
2018-11-10T08:02:53.538Z,3756.00
2018-11-10T08:03:53.566Z,3956.00
2018-11-10T08:04:53.598Z,4128.00
2018-11-10T08:05:53.627Z,4548.00
2018-11-10T08:06:53.656Z,4552.00
2018-11-10T08:07:53.685Z,4184.00
2018-11-10T08:08:53.715Z,4088.00
2018-11-10T08:09:53.746Z,4192.00
2018-11-10T08:10:53.774Z,4312.00
2018-11-10T08:11:53.902Z,4360.00
2018-11-10T08:12:53.836Z,4432.00
2018-11-10T08:13:53.865Z,4448.00
2018-11-10T08:14:53.894Z,4444.00
2018-11-10T08:15:53.924Z,4436.00
2018-11-10T08:16:55.758Z,4400.00
2018-11-10T08:17:53.986Z,4336.00
2018-11-10T08:18:54.015Z,4320.00
2018-11-10T08:19:54.044Z,4292.00
2018-11-10T08:20:54.074Z,4448.00
2018-11-10T08:21:54.108Z,4652.00
2018-11-10T08:22:54.136Z,4756.00
2018-11-10T08:23:54.165Z,4808.00
2018-11-10T08:24:54.244Z,4836.00
2018-11-10T08:25:54.230Z,4872.00
2018-11-10T08:26:54.255Z,4780.00
2018-11-10T08:27:54.287Z,4668.00
2018-11-10T08:28:54.317Z,4524.00
2018-11-10T08:29:54.349Z,4316.00
2018-11-10T08:30:54.376Z,4276.00
2018-11-10T08:31:54.408Z,4364.00
2018-11-10T08:32:54.444Z,4480.00
2018-11-10T08:33:54.469Z,4548.00
2018-11-10T08:34:54.499Z,4776.00
2018-11-10T08:35:54.529Z,4920.00
2018-11-10T08:36:54.559Z,5008.00
2018-11-10T08:37:54.590Z,5064.00
2018-11-10T08:38:54.642Z,5340.00
2018-11-10T08:39:54.651Z,5628.00
2018-11-10T08:40:54.680Z,5680.00
2018-11-10T08:41:54.712Z,5624.00
2018-11-10T08:42:54.791Z,5436.00
2018-11-10T08:43:54.772Z,5404.00
2018-11-10T08:44:54.803Z,5352.00
2018-11-10T08:45:54.833Z,5148.00
2018-11-10T08:46:54.864Z,4876.00
2018-11-10T08:47:54.893Z,4380.00
2018-11-10T08:48:54.925Z,4116.00
2018-11-10T08:49:54.956Z,4092.00
2018-11-10T08:50:54.986Z,4052.00
2018-11-10T08:51:55.017Z,4280.00
2018-11-10T08:52:55.196Z,4380.00
2018-11-10T08:53:55.078Z,4432.00
2018-11-10T08:54:55.108Z,4348.00
2018-11-10T08:55:55.138Z,4200.00
2018-11-10T08:56:55.169Z,4008.00
2018-11-10T08:57:55.202Z,3984.00
2018-11-10T08:58:55.253Z,3912.00
2018-11-10T08:59:55.262Z,3944.00
2018-11-10T09:00:55.292Z,3916.00
2018-11-10T09:01:55.322Z,4068.00
2018-11-10T09:02:55.353Z,3980.00
2018-11-10T09:03:55.384Z,4012.00
2018-11-10T09:04:55.414Z,4044.00
2018-11-10T09:05:55.445Z,4132.00
2018-11-10T09:06:55.476Z,4416.00
2018-11-10T09:07:55.506Z,4676.00
2018-11-10T09:08:55.537Z,4760.00
2018-11-10T09:09:55.612Z,5000.00
2018-11-10T09:10:55.597Z,5364.00
2018-11-10T09:11:55.632Z,5660.00
2018-11-10T09:12:55.659Z,5764.00
2018-11-10T09:13:55.690Z,5684.00
2018-11-10T09:14:55.776Z,5464.00
2018-11-10T09:15:55.753Z,5064.00
2018-11-10T09:16:55.783Z,4968.00
2018-11-10T09:17:55.914Z,5000.00
2018-11-10T09:18:55.844Z,5236.00
2018-11-10T09:19:55.875Z,5396.00
2018-11-10T09:20:55.905Z,5124.00
2018-11-10T09:21:55.937Z,4672.00
2018-11-10T09:22:55.966Z,4440.00
2018-11-10T09:23:55.997Z,4312.00
2018-11-10T09:24:56.029Z,4336.00
2018-11-10T09:25:56.060Z,4324.00
2018-11-10T09:26:56.093Z,4136.00
2018-11-10T09:27:56.121Z,4200.00
2018-11-10T09:28:56.152Z,4328.00
2018-11-10T09:29:56.183Z,4528.00
2018-11-10T09:30:56.264Z,4724.00
2018-11-10T09:31:56.245Z,4844.00
2018-11-10T09:32:56.276Z,4892.00
2018-11-10T09:33:56.307Z,4904.00
2018-11-10T09:34:56.337Z,4952.00
2018-11-10T09:35:56.369Z,4976.00
2018-11-10T09:36:56.401Z,5124.00
2018-11-10T09:37:56.431Z,5340.00
2018-11-10T09:38:56.464Z,5540.00
2018-11-10T09:39:56.494Z,5568.00
2018-11-10T09:40:56.529Z,5524.00
2018-11-10T09:41:56.577Z,5680.00
2018-11-10T09:42:56.587Z,6040.00
2018-11-10T09:43:56.625Z,6428.00
2018-11-10T09:44:56.649Z,6472.00
2018-11-10T09:45:56.681Z,6640.00
2018-11-10T09:46:56.712Z,7256.00
2018-11-10T09:47:56.742Z,8052.00
2018-11-10T09:48:56.782Z,8660.00
2018-11-10T09:49:56.839Z,8480.00
2018-11-10T09:50:56.920Z,8324.00
2018-11-10T09:51:56.867Z,8092.00
2018-11-10T09:52:56.903Z,8160.00
2018-11-10T09:53:56.930Z,7820.00
2018-11-10T09:54:56.962Z,7740.00
2018-11-10T09:55:56.994Z,8180.00
2018-11-10T09:56:57.026Z,8540.00
2018-11-10T09:57:57.057Z,8556.00
2018-11-10T09:58:57.089Z,8368.00
2018-11-10T09:59:57.121Z,8052.00
2018-11-10T10:00:57.187Z,7496.00
2018-11-10T10:01:57.449Z,7060.00
2018-11-10T10:02:57.215Z,6872.00
2018-11-10T10:03:57.247Z,6696.00
2018-11-10T10:04:57.279Z,6780.00
2018-11-10T10:05:57.314Z,6936.00
2018-11-10T10:06:57.343Z,6856.00
2018-11-10T10:07:57.375Z,7096.00
2018-11-10T10:08:57.412Z,7220.00
2018-11-10T10:09:57.440Z,7512.00
2018-11-10T10:10:57.472Z,7584.00
2018-11-10T10:11:57.503Z,7984.00
2018-11-10T10:12:57.535Z,8640.00
2018-11-10T10:13:57.568Z,8636.00
2018-11-10T10:14:57.598Z,8196.00
2018-11-10T10:15:57.685Z,7904.00
2018-11-10T10:16:57.664Z,7624.00
2018-11-10T10:17:57.695Z,7192.00
2018-11-10T10:18:57.728Z,6612.00
2018-11-10T10:19:57.759Z,6696.00
2018-11-10T10:20:57.792Z,6960.00
2018-11-10T10:21:57.896Z,6984.00
2018-11-10T10:22:57.854Z,6960.00
2018-11-10T10:23:57.888Z,6916.00
2018-11-10T10:24:57.919Z,7200.00
2018-11-10T10:25:57.952Z,7696.00
2018-11-10T10:26:57.983Z,7768.00
2018-11-10T10:27:58.020Z,7172.00
2018-11-10T10:28:58.059Z,6868.00
2018-11-10T10:29:58.082Z,6752.00
2018-11-10T10:30:58.113Z,6308.00
2018-11-10T10:31:58.145Z,6364.00
2018-11-10T10:32:58.179Z,6916.00
2018-11-10T10:33:58.228Z,7220.00
2018-11-10T10:34:58.266Z,7068.00
2018-11-10T10:35:58.274Z,6532.00
2018-11-10T10:36:58.307Z,5992.00
2018-11-10T10:37:58.339Z,5884.00
2018-11-10T10:38:58.370Z,6020.00
2018-11-10T10:39:58.404Z,6280.00
2018-11-10T10:40:58.436Z,6552.00
2018-11-10T10:41:58.468Z,6752.00
2018-11-10T10:42:58.577Z,7200.00
2018-11-10T10:43:58.533Z,7232.00
2018-11-10T10:44:58.565Z,6380.00
2018-11-10T10:45:58.601Z,5792.00
2018-11-10T10:46:58.632Z,5492.00
2018-11-10T10:47:58.662Z,5328.00
2018-11-10T10:48:58.835Z,4968.00
2018-11-10T10:49:58.730Z,4652.00
2018-11-10T10:50:58.759Z,4404.00
2018-11-10T10:51:58.791Z,4180.00
2018-11-10T10:52:58.827Z,3988.00
2018-11-10T10:53:58.857Z,4120.00
2018-11-10T10:54:58.887Z,4404.00
2018-11-10T10:55:58.969Z,4456.00
2018-11-10T10:56:59.036Z,4364.00
2018-11-10T10:57:58.984Z,4564.00
2018-11-10T10:58:59.018Z,4764.00
2018-11-10T10:59:59.049Z,4820.00
2018-11-10T11:00:59.082Z,4676.00
2018-11-10T11:01:59.116Z,4572.00
2018-11-10T11:02:59.268Z,4664.00
2018-11-10T11:03:59.179Z,4872.00
2018-11-10T11:04:59.211Z,5152.00
2018-11-10T11:05:59.244Z,5392.00
2018-11-10T11:06:59.275Z,5676.00
2018-11-10T11:07:59.308Z,5840.00
2018-11-10T11:08:59.459Z,5868.00
2018-11-10T11:09:59.372Z,5628.00
2018-11-10T11:10:59.404Z,5180.00
2018-11-10T11:11:59.437Z,4684.00
2018-11-10T11:12:59.471Z,4216.00
2018-11-10T11:13:59.502Z,3844.00
2018-11-10T11:14:59.550Z,3596.00
2018-11-10T11:15:59.566Z,3472.00
2018-11-10T11:16:59.598Z,3468.00
2018-11-10T11:17:59.629Z,3592.00
2018-11-10T11:18:59.662Z,3732.00
2018-11-10T11:19:59.692Z,3868.00
2018-11-10T11:20:59.725Z,4016.00
2018-11-10T11:21:59.890Z,4164.00
2018-11-10T11:22:59.791Z,4196.00
2018-11-10T11:23:59.820Z,4204.00
2018-11-10T11:24:59.852Z,4280.00
2018-11-10T11:25:59.884Z,4376.00
2018-11-10T11:26:59.916Z,4492.00
2018-11-10T11:27:59.947Z,4748.00
2018-11-10T11:29:00.013Z,5120.00
2018-11-10T11:30:00.014Z,5632.00
2018-11-10T11:31:00.054Z,6328.00
2018-11-10T11:32:00.075Z,7268.00
2018-11-10T11:33:00.108Z,8548.00
2018-11-10T11:34:00.138Z,8976.00
2018-11-10T11:35:00.197Z,9840.00
2018-11-10T11:36:00.201Z,10632.00
2018-11-10T11:37:00.234Z,11392.00
2018-11-10T11:38:00.265Z,12152.00
2018-11-10T11:39:00.297Z,12356.00
2018-11-10T11:40:00.329Z,12528.00
2018-11-10T11:41:00.414Z,14000.00
2018-11-10T11:42:00.394Z,15148.00
2018-11-10T11:43:00.424Z,18208.00
2018-11-10T11:44:00.457Z,19168.00
2018-11-10T11:45:00.490Z,21888.00
2018-11-10T11:46:00.521Z,17696.00
2018-11-10T11:47:00.555Z,15704.00
2018-11-10T11:48:00.586Z,15380.00
2018-11-10T11:49:00.620Z,13048.00
2018-11-10T11:50:00.796Z,11660.00
2018-11-10T11:51:00.684Z,10304.00
2018-11-10T11:52:00.718Z,9460.00
2018-11-10T11:53:00.751Z,8748.00
2018-11-10T11:54:00.784Z,8064.00
2018-11-10T11:55:00.817Z,7336.00
2018-11-10T11:56:00.852Z,6612.00
2018-11-10T11:57:00.882Z,5924.00
2018-11-10T11:58:01.082Z,5336.00
2018-11-10T11:59:00.950Z,4984.00
2018-11-10T12:00:00.983Z,4800.00
2018-11-10T12:01:01.015Z,4708.00
2018-11-10T12:02:01.090Z,4632.00
2018-11-10T12:03:01.084Z,4596.00
2018-11-10T12:04:01.115Z,4560.00
2018-11-10T12:05:01.148Z,4536.00
2018-11-10T12:06:01.180Z,4552.00
2018-11-10T12:07:01.212Z,4536.00
2018-11-10T12:08:01.245Z,4540.00
2018-11-10T12:09:01.279Z,4628.00
2018-11-10T12:10:01.313Z,4856.00
2018-11-10T12:11:01.343Z,5248.00
2018-11-10T12:12:01.377Z,5624.00
2018-11-10T12:13:01.411Z,6004.00
2018-11-10T12:14:01.444Z,6360.00
2018-11-10T12:15:01.521Z,6840.00
2018-11-10T12:16:01.510Z,7376.00
2018-11-10T12:17:01.616Z,7816.00
2018-11-10T12:18:01.573Z,7908.00
2018-11-10T12:19:01.607Z,7696.00
2018-11-10T12:20:01.641Z,7312.00
2018-11-10T12:21:01.750Z,6860.00
2018-11-10T12:22:01.746Z,6280.00
2018-11-10T12:23:01.737Z,5720.00
2018-11-10T12:24:01.769Z,5304.00
2018-11-10T12:25:01.803Z,5324.00
2018-11-10T12:26:01.837Z,5756.00
2018-11-10T12:27:01.870Z,6528.00
2018-11-10T12:28:01.900Z,7064.00
2018-11-10T12:29:01.932Z,7712.00
2018-11-10T12:30:02.217Z,8532.00
2018-11-10T12:31:01.999Z,9160.00
2018-11-10T12:32:02.067Z,9568.00
2018-11-10T12:33:02.064Z,9880.00
2018-11-10T12:34:02.100Z,10248.00
2018-11-10T12:35:02.132Z,10228.00
2018-11-10T12:36:02.163Z,9316.00
2018-11-10T12:37:02.195Z,7892.00
2018-11-10T12:38:02.229Z,6820.00
2018-11-10T12:39:02.260Z,6192.00
2018-11-10T12:40:02.294Z,5548.00
2018-11-10T12:41:02.326Z,5152.00
2018-11-10T12:42:02.360Z,4896.00